Gent, Belgium

7:02 AM CET on October 26, 2014 (GMT +0100)
Industrieterein Poortakker | Change Station
CLOSE
Current Station
Personal Weather Station
Location: Gent, VLAAMS GEWEST
Elevation: 20 ft
Nearby Weather Stations

Elev 20 ft 51.03 °N, 3.69 °E | Updated 2 minutes ago

Mostly Cloudy
Mostly Cloudy
52.8 °F
Feels Like 52.8 °F
N
0.0
Wind Variable Wind from SSE
Gusts 1.0 mph

Today
High -- | Low -- °F
--% Chance of Precip.
Yesterday
High -- | Low -- °F
Precip. -- in
7:26 AM 5:30 PM
Waxing Crescent, 6% visible
Pressure 30.24 in
Visibility 6.2 miles
Clouds Mostly Cloudy 4000 ft
Dew Point 50 °F
Humidity 90%
Rainfall 0.00 in
Snow Depth Not available.
UV 0 out of 12
Pollen Not available.
Air Quality Not available.
Flu Activity Not available.
METAR EBBR 260550Z 19006KT 9999 BKN040 12/09 Q1024 NOSIG

More Conditions Fewer Conditions

Pressure 30.24 in
Visibility 6.2 miles
Clouds Mostly Cloudy 4000 ft
Dew Point 50 °F
Humidity 90%
Rainfall 0.00 in
Snow Depth Not available.
UV 0 out of 12
Pollen Not available.
Air Quality Not available.
Flu Activity Not available.
METAR EBBR 260550Z 19006KT 9999 BKN040 12/09 Q1024 NOSIG

More Conditions Fewer Conditions

10-Day Weather Forecast

Almanac

Astronomy

Oct. 26, 2014 Rise Set
Actual Time 7:26 AM CET 5:30 PM CET
Civil Twilight 6:52 AM CET 6:04 PM CET
Nautical Twilight 6:13 AM CET 6:43 PM CET
Astronomical Twilight 5:35 AM CET 7:21 PM CET
Moon 10:01 AM CET 7:16 PM CET
Length of Visible Light 11h 12m
Length of Day
10h 03m
Tomorrow will be 3m 37s shorter.
Waxing Crescent, 6% of the Moon is Illuminated
Today
Waxing Crescent
Oct 30
First Quarter
Nov 6
Full
Nov 14
Last Quarter
Nov 22
New

Yesterday's Extremes

Country Highs Country Lows

Community

WunderPhotos

Upload Photos

1,765,113 photos uploaded!

Nearby

Snow Depth

Not available.

Earthquake Activity

City Distance Mag. Time & Date
No recent earthquake activity has been reported nearby.
Minimum magnitude displayed is 2.5.

Coastal Water Temperatures

Place Temperature
No Stations Reporting

Nearby Weather Stations